TimeCDT,TemperatureF,Dew PointF,Humidity,Sea Level PressureIn,VisibilityMPH,Wind Direction,Wind SpeedMPH,Gust SpeedMPH,PrecipitationIn,Events,Conditions,WindDirDegrees,DateUTC
12:53 AM,73.9,71.1,91,29.92,9.0,Calm,Calm,-,N/A,,Clear,0,2012-09-02 05:53:00
1:53 AM,73.0,70.0,90,29.92,8.0,Calm,Calm,-,N/A,,Clear,0,2012-09-02 06:53:00
2:53 AM,72.0,70.0,93,29.92,5.0,Calm,Calm,-,N/A,,Clear,0,2012-09-02 07:53:00
3:53 AM,71.1,69.1,93,29.92,3.0,Calm,Calm,-,N/A,,Clear,0,2012-09-02 08:53:00
4:38 AM,71.6,69.8,94,29.94,1.8,Calm,Calm,-,N/A,,Clear,0,2012-09-02 09:38:00
4:48 AM,71.6,69.8,94,29.94,0.5,Calm,Calm,-,N/A,Fog,Fog,0,2012-09-02 09:48:00
4:53 AM,71.1,70.0,96,29.92,0.5,Calm,Calm,-,N/A,Fog,Fog,0,2012-09-02 09:53:00
5:53 AM,70.0,69.1,97,29.94,0.5,Calm,Calm,-,N/A,Fog,Fog,0,2012-09-02 10:53:00
6:33 AM,69.8,69.8,100,29.96,0.2,Calm,Calm,-,N/A,Fog,Fog,0,2012-09-02 11:33:00
6:40 AM,69.8,68.0,94,29.97,0.2,Calm,Calm,-,N/A,Fog,Fog,0,2012-09-02 11:40:00
6:51 AM,69.8,69.8,100,29.97,1.0,Calm,Calm,-,N/A,,Mist,0,2012-09-02 11:51:00
6:53 AM,70.0,69.1,97,29.96,1.2,Calm,Calm,-,N/A,,Partly Cloudy,0,2012-09-02 11:53:00
7:01 AM,69.8,69.8,100,29.97,3.0,Calm,Calm,-,N/A,,Partly Cloudy,0,2012-09-02 12:01:00
7:28 AM,69.8,69.8,100,29.98,1.8,Calm,Calm,-,N/A,,Clear,0,2012-09-02 12:28:00
7:53 AM,72.0,71.1,97,29.97,4.0,Calm,Calm,-,N/A,,Clear,0,2012-09-02 12:53:00
8:53 AM,80.1,73.0,79,29.97,10.0,SW,4.6,-,N/A,,Clear,230,2012-09-02 13:53:00
9:53 AM,84.0,73.0,69,29.97,10.0,WSW,8.1,-,N/A,,Clear,250,2012-09-02 14:53:00
10:53 AM,88.0,73.0,61,29.97,10.0,West,12.7,-,N/A,,Clear,260,2012-09-02 15:53:00
11:53 AM,91.9,73.0,54,29.96,10.0,WSW,10.4,-,N/A,,Clear,250,2012-09-02 16:53:00
12:53 PM,95.0,72.0,47,29.93,10.0,WSW,10.4,17.3,N/A,,Clear,250,2012-09-02 17:53:00
1:53 PM,98.1,71.1,42,29.90,10.0,West,11.5,19.6,N/A,,Clear,270,2012-09-02 18:53:00
2:53 PM,100.0,70.0,38,29.87,10.0,WSW,11.5,-,N/A,,Clear,240,2012-09-02 19:53:00
3:53 PM,100.9,69.1,36,29.85,10.0,WSW,10.4,18.4,N/A,,Clear,250,2012-09-02 20:53:00
4:53 PM,100.9,68.0,34,29.84,10.0,SSW,8.1,-,N/A,,Clear,210,2012-09-02 21:53:00
5:53 PM,100.0,68.0,35,29.83,10.0,WSW,6.9,-,N/A,,Clear,240,2012-09-02 22:53:00
6:53 PM,96.1,68.0,40,29.83,10.0,SW,4.6,-,N/A,,Clear,230,2012-09-02 23:53:00
7:53 PM,91.9,68.0,45,29.84,10.0,SSW,6.9,-,N/A,,Clear,200,2012-09-03 00:53:00
8:53 PM,89.1,69.1,52,29.85,10.0,SSW,5.8,-,N/A,,Clear,210,2012-09-03 01:53:00
9:53 PM,82.0,71.1,69,29.86,10.0,Calm,Calm,-,N/A,,Clear,0,2012-09-03 02:53:00
10:53 PM,78.1,72.0,81,29.87,10.0,Calm,Calm,-,N/A,,Clear,0,2012-09-03 03:53:00
11:53 PM,75.9,72.0,87,29.87,10.0,Calm,Calm,-,N/A,,Clear,0,2012-09-03 04:53:00